createdAt,value
2023-03-02T00:00:16.279Z,34.13
2023-03-02T00:02:45.598Z,30.48
2023-03-02T00:05:15.728Z,25.65
2023-03-02T00:07:44.286Z,30.25
2023-03-02T00:10:13.244Z,36.85
2023-03-02T00:12:42.558Z,32.53
2023-03-02T00:15:12.173Z,33.88
2023-03-02T00:17:40.630Z,31.83
2023-03-02T00:20:11.749Z,28.33
2023-03-02T00:22:43.471Z,29.05
2023-03-02T00:25:13.512Z,31.30
2023-03-02T00:27:42.301Z,39.42
2023-03-02T00:30:13.147Z,34.40
2023-03-02T00:32:41.729Z,31.50
2023-03-02T00:35:11.341Z,31.80
2023-03-02T00:37:41.165Z,29.45
2023-03-02T00:40:11.971Z,30.63
2023-03-02T00:42:40.585Z,33.72
2023-03-02T00:45:10.915Z,36.75
2023-03-02T00:47:41.576Z,34.33
2023-03-02T00:50:12.141Z,32.00
2023-03-02T00:52:42.029Z,29.42
2023-03-02T00:55:11.393Z,32.85
2023-03-02T00:57:39.877Z,31.30
2023-03-02T01:00:10.603Z,31.40
2023-03-02T01:02:44.202Z,29.40
2023-03-02T01:05:13.108Z,33.95
2023-03-02T01:07:42.956Z,34.90
2023-03-02T01:10:13.074Z,28.33
2023-03-02T01:12:41.573Z,33.78
2023-03-02T01:15:11.816Z,34.45
2023-03-02T01:17:41.507Z,29.90
2023-03-02T01:20:12.369Z,33.42
2023-03-02T01:22:43.392Z,27.98
2023-03-02T01:25:13.206Z,31.13
2023-03-02T01:27:41.747Z,29.70
2023-03-02T01:30:12.371Z,31.20
2023-03-02T01:32:40.851Z,36.88
2023-03-02T01:35:10.612Z,31.10
2023-03-02T01:37:39.043Z,32.17
2023-03-02T01:40:13.782Z,29.98
2023-03-02T01:42:53.167Z,30.73
2023-03-02T01:45:53.429Z,33.42
2023-03-02T01:48:29.033Z,27.65
2023-03-02T01:50:58.630Z,31.67
2023-03-02T01:53:30.634Z,32.42
2023-03-02T01:56:01.978Z,29.75
2023-03-02T01:58:37.521Z,28.98
2023-03-02T02:01:15.644Z,32.97
2023-03-02T02:03:46.153Z,31.52
2023-03-02T02:06:20.644Z,35.65
2023-03-02T02:08:50.012Z,29.88
2023-03-02T02:11:20.183Z,30.00
2023-03-02T02:13:48.911Z,34.50
2023-03-02T02:16:17.462Z,33.72
2023-03-02T02:18:46.246Z,35.72
2023-03-02T02:21:15.580Z,32.72
2023-03-02T02:23:51.022Z,29.38
2023-03-02T02:26:25.664Z,32.88
2023-03-02T02:29:00.575Z,29.33
2023-03-02T02:31:37.102Z,40.67
2023-03-02T02:34:13.256Z,31.95
2023-03-02T02:36:47.710Z,31.35
2023-03-02T02:39:22.055Z,36.92
2023-03-02T02:41:56.567Z,30.23
2023-03-02T02:44:25.190Z,33.75
2023-03-02T02:46:53.720Z,31.30
2023-03-02T02:49:33.442Z,27.98
2023-03-02T02:52:02.977Z,29.73
2023-03-02T02:54:32.662Z,34.88
2023-03-02T02:57:05.217Z,31.80
2023-03-02T02:59:40.078Z,28.73
2023-03-02T03:02:12.193Z,33.38
2023-03-02T03:04:40.712Z,37.58
2023-03-02T03:07:14.146Z,25.23
2023-03-02T03:09:42.623Z,30.23
2023-03-02T03:12:18.156Z,25.65
2023-03-02T03:14:47.250Z,34.88
2023-03-02T03:17:15.769Z,29.60
2023-03-02T03:19:46.575Z,30.02
2023-03-02T03:22:18.956Z,30.35
2023-03-02T03:24:47.899Z,31.17
2023-03-02T03:27:18.615Z,29.87
2023-03-02T03:29:48.897Z,31.60
2023-03-02T03:32:18.709Z,32.78
2023-03-02T03:34:47.621Z,29.98
2023-03-02T03:37:20.819Z,30.57
2023-03-02T03:39:49.316Z,25.83
2023-03-02T03:42:19.253Z,29.30
2023-03-02T03:44:47.748Z,28.83
2023-03-02T03:47:16.223Z,31.77
2023-03-02T03:49:44.772Z,32.47
2023-03-02T03:52:13.248Z,29.43
2023-03-02T03:54:41.890Z,29.63
2023-03-02T03:57:12.201Z,31.25
2023-03-02T03:59:42.075Z,36.53
2023-03-02T04:02:11.093Z,27.58
2023-03-02T04:04:39.874Z,35.83
2023-03-02T04:07:08.302Z,32.38
2023-03-02T04:09:38.114Z,29.07
2023-03-02T04:12:08.699Z,31.57
2023-03-02T04:14:37.503Z,36.00
2023-03-02T04:17:08.237Z,31.83
2023-03-02T04:19:37.461Z,34.67
2023-03-02T04:22:06.014Z,32.30
2023-03-02T04:24:34.699Z,35.43
2023-03-02T04:27:03.175Z,29.17
2023-03-02T04:29:32.363Z,28.50
2023-03-02T04:32:00.906Z,30.53
2023-03-02T04:34:30.781Z,29.77
2023-03-02T04:36:59.524Z,30.47
2023-03-02T04:39:28.511Z,28.27
2023-03-02T04:41:57.146Z,40.93
2023-03-02T04:44:25.597Z,47.70
2023-03-02T04:46:54.111Z,27.97
2023-03-02T04:49:22.976Z,34.90
2023-03-02T04:51:52.825Z,32.63
2023-03-02T04:54:24.220Z,31.63
2023-03-02T04:56:53.645Z,30.03
2023-03-02T04:59:26.084Z,30.03
2023-03-02T05:01:55.775Z,27.10
2023-03-02T05:04:24.911Z,35.13
2023-03-02T05:06:54.803Z,30.10
2023-03-02T05:09:27.456Z,27.47
2023-03-02T05:11:56.318Z,25.90
2023-03-02T05:14:25.717Z,30.70
2023-03-02T05:16:54.693Z,34.43
2023-03-02T05:19:23.239Z,29.17
2023-03-02T05:21:51.720Z,35.17
2023-03-02T05:24:21.544Z,31.57
2023-03-02T05:26:50.025Z,30.50
2023-03-02T05:29:18.469Z,32.43
2023-03-02T05:31:48.518Z,32.57
2023-03-02T05:34:18.286Z,37.27
2023-03-02T05:36:47.520Z,39.33
2023-03-02T05:39:15.944Z,38.37
2023-03-02T05:41:45.854Z,32.40
2023-03-02T05:44:14.276Z,30.53
2023-03-02T05:46:42.777Z,35.60
2023-03-02T05:49:11.720Z,27.17
2023-03-02T05:51:40.144Z,26.30
2023-03-02T05:54:08.614Z,33.60
2023-03-02T05:56:37.101Z,30.27
2023-03-02T05:59:06.892Z,32.70
2023-03-02T06:01:36.877Z,27.73
2023-03-02T06:04:05.554Z,33.33
2023-03-02T06:06:34.385Z,28.27
2023-03-02T06:09:03.005Z,27.10
2023-03-02T06:11:31.514Z,32.13
2023-03-02T06:13:59.973Z,28.63
2023-03-02T06:16:31.900Z,33.67
2023-03-02T06:19:00.738Z,28.90
2023-03-02T06:21:29.309Z,29.17
2023-03-02T06:23:57.747Z,29.17
2023-03-02T06:26:26.219Z,30.48
2023-03-02T06:28:54.661Z,27.80
2023-03-02T06:31:23.398Z,28.23
2023-03-02T06:33:53.286Z,30.13
2023-03-02T06:36:21.845Z,27.35
2023-03-02T06:38:50.502Z,39.83
2023-03-02T06:41:19.081Z,35.93
2023-03-02T06:43:47.947Z,31.23
2023-03-02T06:46:16.508Z,32.47
2023-03-02T06:48:45.034Z,31.37
2023-03-02T06:51:14.965Z,28.13
2023-03-02T06:53:43.418Z,35.03
2023-03-02T06:56:12.256Z,30.98
2023-03-02T06:58:40.735Z,29.77
2023-03-02T07:01:09.314Z,26.73
2023-03-02T07:03:38.249Z,29.17
2023-03-02T07:06:07.965Z,30.60
2023-03-02T07:08:37.854Z,31.10
2023-03-02T07:11:08.041Z,26.42
2023-03-02T07:13:38.008Z,35.35
2023-03-02T07:16:09.904Z,31.73
2023-03-02T07:18:38.564Z,30.27
2023-03-02T07:21:07.578Z,33.42
2023-03-02T07:23:37.596Z,30.58
2023-03-02T07:26:08.669Z,28.92
2023-03-02T07:28:39.548Z,27.52
2023-03-02T07:31:09.089Z,30.65
2023-03-02T07:33:38.555Z,35.20
2023-03-02T07:36:08.391Z,30.08
2023-03-02T07:38:39.934Z,33.92
2023-03-02T07:41:09.427Z,31.42
2023-03-02T07:43:38.373Z,27.83
2023-03-02T07:46:07.677Z,34.35
2023-03-02T07:48:36.951Z,33.42
2023-03-02T07:51:07.375Z,34.60
2023-03-02T07:53:37.224Z,30.13
2023-03-02T07:56:10.794Z,35.00
2023-03-02T07:58:39.676Z,51.90
2023-03-02T08:01:08.959Z,29.95
2023-03-02T08:03:37.832Z,35.40
2023-03-02T08:06:08.755Z,29.63
2023-03-02T08:08:39.817Z,35.25
2023-03-02T08:11:10.741Z,31.60
2023-03-02T08:13:39.361Z,35.58
2023-03-02T08:16:10.449Z,34.88
2023-03-02T08:18:39.953Z,30.88
2023-03-02T08:21:14.745Z,33.83
2023-03-02T08:23:44.741Z,35.25
2023-03-02T08:26:17.302Z,34.63
2023-03-02T08:28:46.639Z,40.92
2023-03-02T08:31:15.956Z,37.88
2023-03-02T08:33:46.020Z,32.28
2023-03-02T08:36:17.879Z,46.65
2023-03-02T08:38:48.315Z,39.15
2023-03-02T08:41:20.243Z,38.20
2023-03-02T08:43:49.661Z,30.17
2023-03-02T08:46:20.029Z,38.00
2023-03-02T08:48:49.788Z,33.55
2023-03-02T08:51:21.691Z,29.65
2023-03-02T08:53:55.190Z,33.20
2023-03-02T08:56:26.591Z,45.63
2023-03-02T08:58:59.047Z,37.83
2023-03-02T09:01:30.825Z,30.58
2023-03-02T09:04:00.948Z,31.67
2023-03-02T09:06:32.055Z,34.28
2023-03-02T09:09:02.226Z,34.72
2023-03-02T09:11:30.970Z,38.00
2023-03-02T09:13:59.615Z,34.88
2023-03-02T09:16:28.394Z,29.83
2023-03-02T09:18:56.966Z,34.63
2023-03-02T09:21:25.633Z,47.00
2023-03-02T09:23:58.046Z,28.63
2023-03-02T09:26:28.332Z,36.25
2023-03-02T09:28:57.156Z,27.65
2023-03-02T09:31:26.933Z,29.77
2023-03-02T09:33:57.251Z,31.92
2023-03-02T09:36:27.946Z,30.98
2023-03-02T09:38:56.732Z,32.20
2023-03-02T09:42:19.554Z,28.63
2023-03-02T09:45:22.205Z,30.73
2023-03-02T09:48:05.456Z,29.35
2023-03-02T09:50:38.222Z,31.10
2023-03-02T09:53:40.480Z,29.15
2023-03-02T09:56:16.700Z,32.97
2023-03-02T09:58:56.168Z,27.25
2023-03-02T10:01:37.751Z,27.25
2023-03-02T10:04:19.816Z,30.13
2023-03-02T10:06:48.696Z,26.73
2023-03-02T10:09:17.167Z,24.50
2023-03-02T10:12:18.975Z,31.05
2023-03-02T10:14:58.323Z,27.95
2023-03-02T10:17:46.241Z,30.40
2023-03-02T10:20:25.348Z,30.38
2023-03-02T10:22:59.038Z,36.15
2023-03-02T10:25:39.225Z,30.27
2023-03-02T10:28:20.918Z,30.65
2023-03-02T10:30:56.937Z,31.55
2023-03-02T10:33:26.348Z,26.25
2023-03-02T10:35:55.396Z,34.47
2023-03-02T10:38:26.421Z,33.78
2023-03-02T10:41:01.216Z,31.15
2023-03-02T10:43:36.703Z,37.10
2023-03-02T10:46:09.436Z,30.85
2023-03-02T10:48:49.980Z,28.83
2023-03-02T10:51:30.130Z,29.65
2023-03-02T10:54:07.205Z,33.67
2023-03-02T10:56:36.263Z,29.05
2023-03-02T10:59:32.094Z,39.33
2023-03-02T11:02:03.320Z,32.50
2023-03-02T11:04:33.749Z,35.80
2023-03-02T11:07:12.255Z,34.38
2023-03-02T11:09:40.796Z,26.75
2023-03-02T11:12:17.111Z,28.85
2023-03-02T11:14:45.613Z,28.95
2023-03-02T11:17:35.265Z,26.88
2023-03-02T11:20:10.738Z,26.42
2023-03-02T11:22:48.598Z,33.13
2023-03-02T11:25:27.409Z,30.77
2023-03-02T11:28:12.187Z,28.15
2023-03-02T11:30:48.695Z,28.33
2023-03-02T11:33:25.568Z,28.98
2023-03-02T11:36:00.359Z,23.60
2023-03-02T11:38:33.797Z,25.10
2023-03-02T11:41:07.702Z,25.25
2023-03-02T11:43:36.190Z,27.25
2023-03-02T11:46:13.830Z,24.38
2023-03-02T11:48:51.475Z,29.10
2023-03-02T11:51:23.270Z,21.80
2023-03-02T11:53:57.529Z,24.10
2023-03-02T11:56:31.661Z,23.77
2023-03-02T11:59:04.792Z,26.48
2023-03-02T12:01:38.110Z,28.30
2023-03-02T12:04:27.799Z,26.50
2023-03-02T12:06:56.998Z,26.52
2023-03-02T12:09:37.246Z,25.23
2023-03-02T12:12:35.294Z,24.38
2023-03-02T12:15:04.504Z,21.50
2023-03-02T12:17:36.706Z,21.20
2023-03-02T12:20:30.825Z,19.58
2023-03-02T12:23:11.625Z,24.50
2023-03-02T12:25:49.673Z,21.00
2023-03-02T12:28:32.318Z,24.92
2023-03-02T12:31:11.073Z,21.02
2023-03-02T12:33:50.544Z,18.73
2023-03-02T12:36:28.348Z,22.92
2023-03-02T12:39:18.846Z,20.90
2023-03-02T12:42:40.423Z,26.45
2023-03-02T12:45:33.178Z,25.80
2023-03-02T12:48:07.525Z,17.08
2023-03-02T12:50:40.919Z,15.45
2023-03-02T12:53:20.938Z,18.70
2023-03-02T12:55:49.448Z,20.15
2023-03-02T12:58:22.138Z,22.23
2023-03-02T13:00:56.836Z,17.40
2023-03-02T13:03:27.178Z,15.60
2023-03-02T13:06:03.969Z,15.65
2023-03-02T13:08:34.973Z,15.85
2023-03-02T13:11:04.606Z,18.10
2023-03-02T13:13:40.698Z,23.80
2023-03-02T13:16:22.772Z,20.80
2023-03-02T13:18:55.415Z,19.60
2023-03-02T13:21:29.489Z,18.30
2023-03-02T13:24:00.257Z,21.40
2023-03-02T13:26:32.383Z,17.20
2023-03-02T13:29:07.234Z,18.35
2023-03-02T13:31:36.571Z,18.75
2023-03-02T13:34:05.106Z,17.70
2023-03-02T13:36:39.232Z,18.92
2023-03-02T13:39:20.864Z,23.40
2023-03-02T13:41:56.407Z,18.40
2023-03-02T13:44:30.498Z,17.35
2023-03-02T13:47:00.164Z,18.60
2023-03-02T13:49:31.344Z,20.73
2023-03-02T13:52:07.766Z,20.60
2023-03-02T13:54:38.927Z,20.65
2023-03-02T13:57:08.197Z,20.05
2023-03-02T13:59:37.533Z,19.63
2023-03-02T14:02:23.501Z,20.63
2023-03-02T14:04:52.394Z,18.23
2023-03-02T14:07:21.910Z,20.52
2023-03-02T14:09:51.737Z,20.08
2023-03-02T14:12:27.916Z,18.02
2023-03-02T14:14:59.875Z,21.30
2023-03-02T14:17:28.847Z,43.67
2023-03-02T14:19:57.946Z,18.33
2023-03-02T14:22:29.732Z,37.70
2023-03-02T14:24:59.611Z,22.70
2023-03-02T14:27:31.874Z,19.17
2023-03-02T14:30:01.359Z,24.05
2023-03-02T14:32:30.023Z,43.13
2023-03-02T14:34:59.159Z,23.13
2023-03-02T14:37:30.297Z,20.15
2023-03-02T14:40:00.661Z,40.75
2023-03-02T14:42:29.417Z,28.75
2023-03-02T14:44:59.722Z,42.38
2023-03-02T14:47:28.361Z,21.35
2023-03-02T14:49:56.880Z,22.83
2023-03-02T14:52:31.742Z,21.52
2023-03-02T14:55:07.232Z,20.65
2023-03-02T14:57:39.343Z,21.85
2023-03-02T15:00:14.068Z,20.50
2023-03-02T15:02:42.880Z,38.33
2023-03-02T15:05:11.661Z,21.08
2023-03-02T15:07:41.007Z,27.35
2023-03-02T15:10:16.258Z,23.23
2023-03-02T15:12:44.757Z,19.27
2023-03-02T15:15:14.141Z,21.92
2023-03-02T15:17:43.055Z,24.33
2023-03-02T15:20:17.211Z,18.02
2023-03-02T15:22:45.845Z,23.77
2023-03-02T15:25:16.156Z,19.02
2023-03-02T15:27:44.630Z,23.85
2023-03-02T15:30:14.522Z,25.85
2023-03-02T15:32:43.153Z,22.92
2023-03-02T15:35:12.620Z,19.67
2023-03-02T15:37:41.305Z,17.85
2023-03-02T15:40:11.682Z,18.08
2023-03-02T15:42:41.550Z,18.45
2023-03-02T15:45:11.033Z,17.13
2023-03-02T15:47:39.506Z,17.15
2023-03-02T15:50:09.276Z,21.55
2023-03-02T15:52:37.769Z,21.60
2023-03-02T15:55:07.110Z,20.95
2023-03-02T15:57:40.451Z,19.42
2023-03-02T16:00:13.624Z,17.75
2023-03-02T16:02:42.241Z,17.05
2023-03-02T16:05:11.378Z,18.02
2023-03-02T16:07:40.072Z,19.80
2023-03-02T16:10:15.298Z,20.75
2023-03-02T16:12:45.470Z,18.33
2023-03-02T16:15:14.110Z,17.90
2023-03-02T16:17:43.992Z,22.67
2023-03-02T16:20:14.157Z,19.27
2023-03-02T16:22:42.641Z,17.05
2023-03-02T16:25:11.353Z,15.73
2023-03-02T16:27:39.865Z,15.77
2023-03-02T16:30:12.358Z,18.90
2023-03-02T16:32:41.312Z,16.67
2023-03-02T16:35:12.262Z,21.67
2023-03-02T16:37:41.040Z,18.83
2023-03-02T16:40:12.220Z,14.55
2023-03-02T16:42:41.831Z,18.08
2023-03-02T16:45:13.092Z,19.13
2023-03-02T16:47:41.864Z,24.77
2023-03-02T16:50:12.279Z,17.73
2023-03-02T16:52:41.963Z,21.52
2023-03-02T16:55:16.879Z,16.75
2023-03-02T16:57:47.996Z,19.20
2023-03-02T17:00:20.700Z,16.88
2023-03-02T17:02:51.007Z,30.65
2023-03-02T17:05:22.338Z,23.17
2023-03-02T17:07:50.944Z,16.15
2023-03-02T17:10:23.717Z,17.35
2023-03-02T17:12:53.451Z,15.13
2023-03-02T17:15:23.785Z,36.08
2023-03-02T17:17:52.916Z,21.73
2023-03-02T17:20:23.490Z,18.95
2023-03-02T17:22:52.583Z,14.60
2023-03-02T17:25:21.519Z,16.45
2023-03-02T17:27:53.522Z,15.20
2023-03-02T17:30:24.875Z,18.63
2023-03-02T17:32:54.224Z,17.00
2023-03-02T17:35:23.625Z,15.25
2023-03-02T17:37:52.306Z,13.90
2023-03-02T17:40:21.814Z,12.50
2023-03-02T17:42:54.543Z,16.08
2023-03-02T17:45:29.424Z,16.77
2023-03-02T17:48:01.687Z,13.15
2023-03-02T17:50:32.127Z,17.75
2023-03-02T17:53:03.118Z,13.23
2023-03-02T17:55:33.374Z,16.33
2023-03-02T17:58:08.008Z,15.15
2023-03-02T18:00:40.717Z,15.93
2023-03-02T18:03:10.902Z,18.77
2023-03-02T18:05:41.201Z,18.60
2023-03-02T18:08:10.956Z,17.23
2023-03-02T18:10:47.834Z,48.85
2023-03-02T18:13:17.333Z,22.13
2023-03-02T18:15:48.556Z,23.25
2023-03-02T18:18:18.106Z,21.40
2023-03-02T18:20:48.175Z,24.25
2023-03-02T18:23:19.637Z,18.45
2023-03-02T18:25:49.994Z,23.88
2023-03-02T18:28:19.237Z,17.80
2023-03-02T18:30:50.426Z,17.77
2023-03-02T18:33:20.295Z,13.48
2023-03-02T18:35:50.398Z,21.52
2023-03-02T18:38:20.774Z,19.58
2023-03-02T18:40:51.123Z,16.30
2023-03-02T18:43:20.827Z,16.58
2023-03-02T18:45:51.566Z,15.25
2023-03-02T18:48:21.497Z,15.43
2023-03-02T18:50:50.798Z,15.77
2023-03-02T18:53:20.214Z,17.63
2023-03-02T18:55:50.726Z,17.45
2023-03-02T18:58:23.913Z,29.65
2023-03-02T19:00:58.370Z,13.93
2023-03-02T19:03:28.791Z,16.20
2023-03-02T19:05:59.603Z,15.50
2023-03-02T19:08:29.977Z,17.98
2023-03-02T19:10:59.969Z,22.67
2023-03-02T19:13:30.984Z,22.90
2023-03-02T19:16:03.775Z,23.13
2023-03-02T19:18:34.802Z,24.17
2023-03-02T19:21:06.238Z,22.55
2023-03-02T19:23:37.909Z,31.48
2023-03-02T19:26:09.210Z,22.70
2023-03-02T19:28:40.440Z,31.33
2023-03-02T19:31:13.399Z,30.88
2023-03-02T19:33:47.395Z,27.23
2023-03-02T19:36:18.399Z,34.50
2023-03-02T19:38:49.538Z,25.27
2023-03-02T19:41:23.092Z,29.00
2023-03-02T19:43:53.490Z,26.20
2023-03-02T19:46:25.346Z,34.97
2023-03-02T19:48:56.594Z,23.25
2023-03-02T19:51:28.424Z,23.92
2023-03-02T19:54:04.362Z,38.35
2023-03-02T19:56:35.733Z,27.70
2023-03-02T19:59:06.635Z,25.70
2023-03-02T20:01:40.017Z,27.25
2023-03-02T20:04:09.833Z,22.30
2023-03-02T20:06:40.414Z,24.60
2023-03-02T20:09:12.139Z,23.10
2023-03-02T20:11:43.012Z,20.27
2023-03-02T20:14:27.656Z,23.67
2023-03-02T20:17:06.931Z,20.25
2023-03-02T20:19:39.512Z,21.55
2023-03-02T20:22:10.521Z,33.67
2023-03-02T20:24:41.449Z,25.75
2023-03-02T20:27:13.691Z,27.25
2023-03-02T20:29:45.914Z,23.30
2023-03-02T20:32:18.993Z,22.05
2023-03-02T20:34:49.408Z,27.17
2023-03-02T20:37:20.733Z,25.80
2023-03-02T20:39:52.233Z,24.02
2023-03-02T20:42:23.441Z,27.95
2023-03-02T20:44:53.946Z,31.67
2023-03-02T20:47:25.886Z,25.13
2023-03-02T20:49:56.519Z,26.73
2023-03-02T20:52:26.381Z,21.77
2023-03-02T20:54:57.374Z,24.02
2023-03-02T20:57:27.897Z,25.35
2023-03-02T20:59:58.194Z,25.38
2023-03-02T21:02:30.635Z,21.75
2023-03-02T21:05:00.695Z,27.45
2023-03-02T21:07:31.003Z,26.42
2023-03-02T21:10:01.002Z,24.92
2023-03-02T21:12:34.265Z,25.50
2023-03-02T21:15:04.308Z,21.95
2023-03-02T21:17:35.968Z,21.35
2023-03-02T21:20:07.124Z,18.05
2023-03-02T21:22:37.818Z,19.13
2023-03-02T21:25:09.762Z,22.30
2023-03-02T21:27:41.270Z,22.55
2023-03-02T21:30:15.744Z,24.20
2023-03-02T21:32:45.899Z,26.75
2023-03-02T21:35:17.434Z,22.45
2023-03-02T21:37:46.941Z,19.73
2023-03-02T21:40:19.562Z,21.75
2023-03-02T21:42:48.256Z,21.85
2023-03-02T21:45:18.590Z,22.17
2023-03-02T21:47:48.741Z,19.02
2023-03-02T21:50:23.013Z,23.90
2023-03-02T21:52:51.615Z,18.55
2023-03-02T21:55:20.640Z,18.67
2023-03-02T21:57:49.525Z,22.67
2023-03-02T22:00:23.369Z,22.25
2023-03-02T22:02:53.721Z,21.90
2023-03-02T22:05:22.517Z,33.50
2023-03-02T22:07:51.012Z,20.92
2023-03-02T22:10:30.369Z,22.35
2023-03-02T22:13:22.772Z,20.70
2023-03-02T22:15:59.089Z,19.70
2023-03-02T22:18:29.510Z,23.38
2023-03-02T22:20:58.026Z,24.23
2023-03-02T22:23:28.308Z,18.73
2023-03-02T22:26:10.244Z,24.92
2023-03-02T22:28:41.066Z,19.40
2023-03-02T22:31:20.484Z,23.30
2023-03-02T22:33:50.908Z,24.33
2023-03-02T22:36:23.963Z,18.50
2023-03-02T22:38:52.731Z,17.83
2023-03-02T22:41:21.956Z,27.63
2023-03-02T22:43:52.992Z,20.13
2023-03-02T22:46:22.920Z,17.38
2023-03-02T22:48:54.556Z,17.40
2023-03-02T22:51:26.207Z,18.10
2023-03-02T22:53:56.869Z,17.15
2023-03-02T22:56:32.471Z,15.48
2023-03-02T22:59:07.577Z,15.70
2023-03-02T23:01:42.206Z,21.27
2023-03-02T23:04:22.135Z,17.13
2023-03-02T23:06:53.208Z,15.43
2023-03-02T23:09:25.510Z,17.77
2023-03-02T23:11:57.652Z,19.20
2023-03-02T23:14:29.993Z,16.92
2023-03-02T23:17:01.643Z,17.50
2023-03-02T23:19:32.698Z,17.40
2023-03-02T23:22:01.413Z,14.85
2023-03-02T23:24:29.790Z,14.27
2023-03-02T23:26:58.544Z,19.27
2023-03-02T23:29:26.945Z,16.70
2023-03-02T23:31:55.699Z,20.02
2023-03-02T23:34:24.558Z,14.95
2023-03-02T23:36:58.218Z,18.45
2023-03-02T23:39:27.870Z,14.52
2023-03-02T23:41:56.506Z,16.00
2023-03-02T23:44:25.107Z,16.70
2023-03-02T23:46:53.535Z,15.55
2023-03-02T23:49:21.943Z,16.02
2023-03-02T23:51:50.340Z,16.38
2023-03-02T23:54:20.096Z,17.60
2023-03-02T23:56:48.496Z,19.00
2023-03-02T23:59:16.903Z,14.18
